sensor_id;sensor_type;location;lat;lon;timestamp;P1;durP1;ratioP1;P2;durP2;ratioP2
41167;SDS011;26906;45.658;9.272;2023-08-07T07:25:47;1.27;;;0.40;;
41167;SDS011;26906;45.658;9.272;2023-08-07T07:28:13;1.17;;;0.20;;
41167;SDS011;26906;45.658;9.272;2023-08-07T07:30:39;1.50;;;0.32;;
41167;SDS011;26906;45.658;9.272;2023-08-07T07:33:04;0.50;;;0.28;;
41167;SDS011;26906;45.658;9.272;2023-08-07T07:35:30;0.15;;;0.10;;
41167;SDS011;26906;45.658;9.272;2023-08-07T07:37:56;1.75;;;0.40;;
41167;SDS011;26906;45.658;9.272;2023-08-07T07:40:21;0.28;;;0.20;;
41167;SDS011;26906;45.658;9.272;2023-08-07T07:42:47;0.22;;;0.20;;
41167;SDS011;26906;45.658;9.272;2023-08-07T07:45:13;0.30;;;0.20;;
41167;SDS011;26906;45.658;9.272;2023-08-07T07:47:39;2.10;;;0.30;;
41167;SDS011;26906;45.658;9.272;2023-08-07T07:50:05;0.55;;;0.20;;
41167;SDS011;26906;45.658;9.272;2023-08-07T07:52:33;0.20;;;0.20;;
41167;SDS011;26906;45.658;9.272;2023-08-07T07:55:00;1.42;;;0.20;;
41167;SDS011;26906;45.658;9.272;2023-08-07T07:57:26;0.63;;;0.25;;
41167;SDS011;26906;45.658;9.272;2023-08-07T07:59:51;0.22;;;0.20;;
41167;SDS011;26906;45.658;9.272;2023-08-07T08:02:18;0.40;;;0.20;;
41167;SDS011;26906;45.658;9.272;2023-08-07T08:04:44;0.63;;;0.20;;
41167;SDS011;26906;45.658;9.272;2023-08-07T08:07:09;1.38;;;0.20;;
41167;SDS011;26906;45.658;9.272;2023-08-07T08:09:35;0.28;;;0.20;;
41167;SDS011;26906;45.658;9.272;2023-08-07T08:12:00;0.43;;;0.30;;
41167;SDS011;26906;45.658;9.272;2023-08-07T08:14:26;0.30;;;0.20;;
41167;SDS011;26906;45.658;9.272;2023-08-07T08:16:53;0.10;;;0.10;;
41167;SDS011;26906;45.658;9.272;2023-08-07T08:19:19;0.10;;;0.10;;
41167;SDS011;26906;45.658;9.272;2023-08-07T08:21:45;0.30;;;0.20;;
41167;SDS011;26906;45.658;9.272;2023-08-07T08:24:11;1.23;;;0.45;;
41167;SDS011;26906;45.658;9.272;2023-08-07T08:26:37;0.35;;;0.20;;
41167;SDS011;26906;45.658;9.272;2023-08-07T08:29:05;1.23;;;0.10;;
41167;SDS011;26906;45.658;9.272;2023-08-07T08:31:31;2.53;;;0.25;;
41167;SDS011;26906;45.658;9.272;2023-08-07T08:33:58;0.52;;;0.30;;
41167;SDS011;26906;45.658;9.272;2023-08-07T08:36:23;0.10;;;0.10;;
41167;SDS011;26906;45.658;9.272;2023-08-07T08:38:50;0.10;;;0.10;;
41167;SDS011;26906;45.658;9.272;2023-08-07T08:41:17;0.10;;;0.10;;
41167;SDS011;26906;45.658;9.272;2023-08-07T08:43:45;0.30;;;0.10;;
41167;SDS011;26906;45.658;9.272;2023-08-07T08:46:15;0.20;;;0.20;;
41167;SDS011;26906;45.658;9.272;2023-08-07T08:48:42;0.32;;;0.20;;
41167;SDS011;26906;45.658;9.272;2023-08-07T08:51:11;0.57;;;0.20;;
41167;SDS011;26906;45.658;9.272;2023-08-07T08:53:38;0.22;;;0.20;;
41167;SDS011;26906;45.658;9.272;2023-08-07T08:56:04;0.10;;;0.10;;
41167;SDS011;26906;45.658;9.272;2023-08-07T08:58:31;0.10;;;0.10;;
41167;SDS011;26906;45.658;9.272;2023-08-07T09:00:57;0.20;;;0.17;;
41167;SDS011;26906;45.658;9.272;2023-08-07T09:03:24;0.10;;;0.10;;
41167;SDS011;26906;45.658;9.272;2023-08-07T09:05:50;0.75;;;0.25;;
41167;SDS011;26906;45.658;9.272;2023-08-07T09:08:19;1.17;;;0.20;;
41167;SDS011;26906;45.658;9.272;2023-08-07T09:10:46;0.15;;;0.15;;
41167;SDS011;26906;45.658;9.272;2023-08-07T09:13:13;0.20;;;0.10;;
41167;SDS011;26906;45.658;9.272;2023-08-07T09:15:39;1.90;;;0.20;;
41167;SDS011;26906;45.658;9.272;2023-08-07T09:18:08;1.80;;;0.20;;
41167;SDS011;26906;45.658;9.272;2023-08-07T09:20:36;0.32;;;0.32;;
41167;SDS011;26906;45.658;9.272;2023-08-07T09:23:05;1.35;;;0.20;;
41167;SDS011;26906;45.658;9.272;2023-08-07T09:25:31;0.60;;;0.30;;
41167;SDS011;26906;45.658;9.272;2023-08-07T09:27:58;0.50;;;0.30;;
41167;SDS011;26906;45.658;9.272;2023-08-07T09:30:31;2.00;;;0.30;;
41167;SDS011;26906;45.658;9.272;2023-08-07T09:32:59;0.20;;;0.20;;
41167;SDS011;26906;45.658;9.272;2023-08-07T09:35:26;0.82;;;0.40;;
41167;SDS011;26906;45.658;9.272;2023-08-07T09:37:56;0.25;;;0.17;;
41167;SDS011;26906;45.658;9.272;2023-08-07T09:40:22;2.45;;;0.20;;
41167;SDS011;26906;45.658;9.272;2023-08-07T09:42:54;0.35;;;0.20;;
41167;SDS011;26906;45.658;9.272;2023-08-07T09:45:23;0.77;;;0.20;;
41167;SDS011;26906;45.658;9.272;2023-08-07T09:47:57;0.40;;;0.10;;
41167;SDS011;26906;45.658;9.272;2023-08-07T09:50:27;0.35;;;0.20;;
41167;SDS011;26906;45.658;9.272;2023-08-07T09:52:54;0.65;;;0.17;;
41167;SDS011;26906;45.658;9.272;2023-08-07T09:55:23;0.30;;;0.17;;
41167;SDS011;26906;45.658;9.272;2023-08-07T09:57:49;0.28;;;0.20;;
41167;SDS011;26906;45.658;9.272;2023-08-07T10:00:16;0.40;;;0.30;;
41167;SDS011;26906;45.658;9.272;2023-08-07T10:02:45;0.30;;;0.30;;
41167;SDS011;26906;45.658;9.272;2023-08-07T10:05:12;0.25;;;0.10;;
41167;SDS011;26906;45.658;9.272;2023-08-07T10:07:38;0.28;;;0.13;;
41167;SDS011;26906;45.658;9.272;2023-08-07T10:10:05;0.10;;;0.10;;
41167;SDS011;26906;45.658;9.272;2023-08-07T10:12:32;0.40;;;0.30;;
41167;SDS011;26906;45.658;9.272;2023-08-07T10:15:01;2.72;;;0.40;;
41167;SDS011;26906;45.658;9.272;2023-08-07T10:17:27;1.05;;;0.20;;
41167;SDS011;26906;45.658;9.272;2023-08-07T10:19:54;0.30;;;0.30;;
41167;SDS011;26906;45.658;9.272;2023-08-07T10:22:25;1.20;;;0.10;;
41167;SDS011;26906;45.658;9.272;2023-08-07T10:24:55;1.47;;;0.30;;
41167;SDS011;26906;45.658;9.272;2023-08-07T10:27:23;0.47;;;0.17;;
41167;SDS011;26906;45.658;9.272;2023-08-07T10:29:50;0.45;;;0.10;;
41167;SDS011;26906;45.658;9.272;2023-08-07T10:32:18;0.20;;;0.10;;
41167;SDS011;26906;45.658;9.272;2023-08-07T10:34:51;0.10;;;0.10;;
41167;SDS011;26906;45.658;9.272;2023-08-07T10:40:10;0.15;;;0.15;;
41167;SDS011;26906;45.658;9.272;2023-08-07T10:45:42;0.10;;;0.10;;
41167;SDS011;26906;45.658;9.272;2023-08-07T10:48:10;0.17;;;0.17;;
41167;SDS011;26906;45.658;9.272;2023-08-07T10:53:28;0.63;;;0.10;;
41167;SDS011;26906;45.658;9.272;2023-08-07T10:55:55;0.10;;;0.10;;
41167;SDS011;26906;45.658;9.272;2023-08-07T10:58:57;0.10;;;0.10;;
41167;SDS011;26906;45.658;9.272;2023-08-07T11:03:58;0.80;;;0.20;;
41167;SDS011;26906;45.658;9.272;2023-08-07T11:06:29;0.32;;;0.20;;
41167;SDS011;26906;45.658;9.272;2023-08-07T11:08:59;0.10;;;0.10;;
41167;SDS011;26906;45.658;9.272;2023-08-07T11:11:46;0.10;;;0.10;;
41167;SDS011;26906;45.658;9.272;2023-08-07T11:14:16;0.30;;;0.30;;
41167;SDS011;26906;45.658;9.272;2023-08-07T11:16:43;0.10;;;0.10;;
41167;SDS011;26906;45.658;9.272;2023-08-07T11:19:11;0.17;;;0.10;;
41167;SDS011;26906;45.658;9.272;2023-08-07T11:21:38;0.15;;;0.10;;
41167;SDS011;26906;45.658;9.272;2023-08-07T11:24:05;0.15;;;0.00;;
41167;SDS011;26906;45.658;9.272;2023-08-07T11:26:31;0.20;;;0.10;;
41167;SDS011;26906;45.658;9.272;2023-08-07T11:28:56;0.38;;;0.10;;
41167;SDS011;26906;45.658;9.272;2023-08-07T11:31:23;0.10;;;0.10;;
41167;SDS011;26906;45.658;9.272;2023-08-07T11:33:50;0.15;;;0.15;;
41167;SDS011;26906;45.658;9.272;2023-08-07T11:36:16;0.43;;;0.10;;
41167;SDS011;26906;45.658;9.272;2023-08-07T11:38:43;0.25;;;0.20;;
41167;SDS011;26906;45.658;9.272;2023-08-07T11:41:13;0.73;;;0.10;;
41167;SDS011;26906;45.658;9.272;2023-08-07T11:43:41;0.52;;;0.20;;
41167;SDS011;26906;45.658;9.272;2023-08-07T11:46:11;0.65;;;0.20;;
41167;SDS011;26906;45.658;9.272;2023-08-07T11:48:39;0.30;;;0.20;;
41167;SDS011;26906;45.658;9.272;2023-08-07T11:51:06;0.32;;;0.20;;
41167;SDS011;26906;45.658;9.272;2023-08-07T11:53:36;1.25;;;0.10;;
41167;SDS011;26906;45.658;9.272;2023-08-07T11:56:08;0.70;;;0.20;;
41167;SDS011;26906;45.658;9.272;2023-08-07T11:58:36;0.20;;;0.20;;
41167;SDS011;26906;45.658;9.272;2023-08-07T12:01:10;0.20;;;0.20;;
41167;SDS011;26906;45.658;9.272;2023-08-07T12:03:37;0.95;;;0.50;;
41167;SDS011;26906;45.658;9.272;2023-08-07T12:06:06;0.20;;;0.20;;
41167;SDS011;26906;45.658;9.272;2023-08-07T12:08:33;1.48;;;0.20;;
41167;SDS011;26906;45.658;9.272;2023-08-07T12:11:01;2.05;;;0.45;;
41167;SDS011;26906;45.658;9.272;2023-08-07T12:13:29;1.02;;;0.20;;
41167;SDS011;26906;45.658;9.272;2023-08-07T12:15:55;0.10;;;0.10;;
41167;SDS011;26906;45.658;9.272;2023-08-07T12:18:22;0.55;;;0.20;;
41167;SDS011;26906;45.658;9.272;2023-08-07T12:20:49;0.50;;;0.20;;
41167;SDS011;26906;45.658;9.272;2023-08-07T12:23:17;1.65;;;0.10;;
41167;SDS011;26906;45.658;9.272;2023-08-07T12:25:46;0.28;;;0.13;;
41167;SDS011;26906;45.658;9.272;2023-08-07T12:28:12;1.48;;;0.13;;
41167;SDS011;26906;45.658;9.272;2023-08-07T12:30:38;0.75;;;0.20;;
41167;SDS011;26906;45.658;9.272;2023-08-07T12:33:04;0.55;;;0.17;;
41167;SDS011;26906;45.658;9.272;2023-08-07T12:35:31;0.60;;;0.15;;
41167;SDS011;26906;45.658;9.272;2023-08-07T12:37:57;0.30;;;0.20;;
41167;SDS011;26906;45.658;9.272;2023-08-07T12:40:23;0.47;;;0.20;;
41167;SDS011;26906;45.658;9.272;2023-08-07T12:42:51;0.50;;;0.10;;
41167;SDS011;26906;45.658;9.272;2023-08-07T12:45:17;0.50;;;0.30;;
41167;SDS011;26906;45.658;9.272;2023-08-07T12:47:44;0.20;;;0.20;;
41167;SDS011;26906;45.658;9.272;2023-08-07T12:50:10;2.03;;;0.30;;
41167;SDS011;26906;45.658;9.272;2023-08-07T12:52:36;0.20;;;0.20;;
41167;SDS011;26906;45.658;9.272;2023-08-07T12:55:02;0.63;;;0.22;;
41167;SDS011;26906;45.658;9.272;2023-08-07T12:57:29;0.17;;;0.17;;
41167;SDS011;26906;45.658;9.272;2023-08-07T12:59:55;0.60;;;0.28;;
41167;SDS011;26906;45.658;9.272;2023-08-07T13:02:21;0.30;;;0.20;;
41167;SDS011;26906;45.658;9.272;2023-08-07T13:04:47;1.10;;;0.20;;
41167;SDS011;26906;45.658;9.272;2023-08-07T13:07:14;1.33;;;0.30;;
41167;SDS011;26906;45.658;9.272;2023-08-07T13:09:40;1.85;;;0.20;;
41167;SDS011;26906;45.658;9.272;2023-08-07T13:12:05;0.40;;;0.20;;
41167;SDS011;26906;45.658;9.272;2023-08-07T13:14:31;0.50;;;0.30;;
41167;SDS011;26906;45.658;9.272;2023-08-07T13:16:57;0.55;;;0.20;;
41167;SDS011;26906;45.658;9.272;2023-08-07T13:19:23;0.60;;;0.20;;
41167;SDS011;26906;45.658;9.272;2023-08-07T13:21:48;1.10;;;0.20;;
41167;SDS011;26906;45.658;9.272;2023-08-07T13:24:14;1.25;;;0.30;;
41167;SDS011;26906;45.658;9.272;2023-08-07T13:26:40;0.20;;;0.20;;
41167;SDS011;26906;45.658;9.272;2023-08-07T13:29:13;0.32;;;0.20;;
41167;SDS011;26906;45.658;9.272;2023-08-07T13:31:39;1.63;;;0.20;;
41167;SDS011;26906;45.658;9.272;2023-08-07T13:34:06;1.10;;;0.20;;
41167;SDS011;26906;45.658;9.272;2023-08-07T13:36:35;0.65;;;0.40;;
41167;SDS011;26906;45.658;9.272;2023-08-07T13:39:03;1.27;;;0.40;;
41167;SDS011;26906;45.658;9.272;2023-08-07T13:41:29;0.40;;;0.28;;
41167;SDS011;26906;45.658;9.272;2023-08-07T13:43:55;0.50;;;0.30;;
41167;SDS011;26906;45.658;9.272;2023-08-07T13:46:21;0.32;;;0.30;;
41167;SDS011;26906;45.658;9.272;2023-08-07T13:48:47;7.65;;;5.15;;
41167;SDS011;26906;45.658;9.272;2023-08-07T13:51:13;16.27;;;9.63;;
41167;SDS011;26906;45.658;9.272;2023-08-07T13:53:40;6.85;;;3.38;;
41167;SDS011;26906;45.658;9.272;2023-08-07T13:56:06;6.13;;;2.45;;
41167;SDS011;26906;45.658;9.272;2023-08-07T13:58:34;2.28;;;0.90;;
41167;SDS011;26906;45.658;9.272;2023-08-07T14:01:00;1.65;;;0.40;;
41167;SDS011;26906;45.658;9.272;2023-08-07T14:03:25;0.35;;;0.30;;
41167;SDS011;26906;45.658;9.272;2023-08-07T14:05:51;0.50;;;0.32;;
41167;SDS011;26906;45.658;9.272;2023-08-07T14:08:18;2.40;;;1.27;;
41167;SDS011;26906;45.658;9.272;2023-08-07T14:10:43;0.52;;;0.40;;
41167;SDS011;26906;45.658;9.272;2023-08-07T14:13:09;3.25;;;0.88;;
41167;SDS011;26906;45.658;9.272;2023-08-07T14:15:36;1.23;;;0.30;;
41167;SDS011;26906;45.658;9.272;2023-08-07T14:18:02;1.80;;;0.80;;
41167;SDS011;26906;45.658;9.272;2023-08-07T14:20:28;1.30;;;0.40;;
41167;SDS011;26906;45.658;9.272;2023-08-07T14:22:53;0.45;;;0.30;;
41167;SDS011;26906;45.658;9.272;2023-08-07T14:25:19;1.02;;;0.60;;
41167;SDS011;26906;45.658;9.272;2023-08-07T14:27:47;1.65;;;0.68;;
41167;SDS011;26906;45.658;9.272;2023-08-07T14:30:14;3.72;;;0.50;;
41167;SDS011;26906;45.658;9.272;2023-08-07T14:32:40;2.85;;;0.40;;
41167;SDS011;26906;45.658;9.272;2023-08-07T14:35:07;1.60;;;0.70;;
41167;SDS011;26906;45.658;9.272;2023-08-07T14:37:33;2.10;;;0.50;;
41167;SDS011;26906;45.658;9.272;2023-08-07T14:39:59;0.50;;;0.40;;
41167;SDS011;26906;45.658;9.272;2023-08-07T14:42:25;0.63;;;0.40;;
41167;SDS011;26906;45.658;9.272;2023-08-07T14:44:51;0.47;;;0.40;;
41167;SDS011;26906;45.658;9.272;2023-08-07T14:47:17;0.30;;;0.30;;
41167;SDS011;26906;45.658;9.272;2023-08-07T14:49:42;0.73;;;0.60;;
41167;SDS011;26906;45.658;9.272;2023-08-07T14:52:08;0.80;;;0.60;;
41167;SDS011;26906;45.658;9.272;2023-08-07T14:54:34;1.05;;;0.60;;
41167;SDS011;26906;45.658;9.272;2023-08-07T14:56:59;1.85;;;0.68;;
41167;SDS011;26906;45.658;9.272;2023-08-07T14:59:25;1.52;;;0.90;;
41167;SDS011;26906;45.658;9.272;2023-08-07T15:01:51;1.08;;;0.65;;
41167;SDS011;26906;45.658;9.272;2023-08-07T15:04:16;1.55;;;0.60;;
41167;SDS011;26906;45.658;9.272;2023-08-07T15:06:42;0.40;;;0.30;;
41167;SDS011;26906;45.658;9.272;2023-08-07T15:09:11;0.95;;;0.60;;
41167;SDS011;26906;45.658;9.272;2023-08-07T15:11:37;2.50;;;0.38;;
41167;SDS011;26906;45.658;9.272;2023-08-07T15:14:03;0.32;;;0.30;;
41167;SDS011;26906;45.658;9.272;2023-08-07T15:16:30;0.43;;;0.40;;
41167;SDS011;26906;45.658;9.272;2023-08-07T15:18:56;3.67;;;0.50;;
41167;SDS011;26906;45.658;9.272;2023-08-07T15:21:22;0.50;;;0.50;;
41167;SDS011;26906;45.658;9.272;2023-08-07T15:23:47;1.42;;;0.50;;
41167;SDS011;26906;45.658;9.272;2023-08-07T15:26:13;1.00;;;0.50;;
41167;SDS011;26906;45.658;9.272;2023-08-07T15:28:39;0.60;;;0.57;;
41167;SDS011;26906;45.658;9.272;2023-08-07T15:31:05;0.65;;;0.40;;
41167;SDS011;26906;45.658;9.272;2023-08-07T15:33:31;2.80;;;0.50;;
41167;SDS011;26906;45.658;9.272;2023-08-07T15:35:56;1.17;;;0.50;;
41167;SDS011;26906;45.658;9.272;2023-08-07T15:38:23;2.15;;;0.50;;
41167;SDS011;26906;45.658;9.272;2023-08-07T15:40:50;1.67;;;0.30;;
41167;SDS011;26906;45.658;9.272;2023-08-07T15:43:16;1.38;;;0.50;;
41167;SDS011;26906;45.658;9.272;2023-08-07T15:45:44;3.28;;;0.70;;
41167;SDS011;26906;45.658;9.272;2023-08-07T15:48:10;1.58;;;0.50;;
41167;SDS011;26906;45.658;9.272;2023-08-07T15:50:35;0.63;;;0.40;;
41167;SDS011;26906;45.658;9.272;2023-08-07T15:53:03;1.55;;;0.45;;
41167;SDS011;26906;45.658;9.272;2023-08-07T15:55:32;0.60;;;0.40;;
41167;SDS011;26906;45.658;9.272;2023-08-07T15:58:00;2.83;;;0.70;;
41167;SDS011;26906;45.658;9.272;2023-08-07T16:00:27;2.03;;;1.10;;
41167;SDS011;26906;45.658;9.272;2023-08-07T16:02:55;1.58;;;0.40;;
41167;SDS011;26906;45.658;9.272;2023-08-07T16:05:21;2.03;;;0.57;;
41167;SDS011;26906;45.658;9.272;2023-08-07T16:07:47;0.70;;;0.57;;
41167;SDS011;26906;45.658;9.272;2023-08-07T16:10:15;0.93;;;0.60;;
41167;SDS011;26906;45.658;9.272;2023-08-07T16:12:41;1.08;;;0.60;;
41167;SDS011;26906;45.658;9.272;2023-08-07T16:15:07;0.40;;;0.40;;
41167;SDS011;26906;45.658;9.272;2023-08-07T16:17:33;0.68;;;0.40;;
41167;SDS011;26906;45.658;9.272;2023-08-07T16:19:59;0.88;;;0.40;;
41167;SDS011;26906;45.658;9.272;2023-08-07T16:22:24;0.50;;;0.40;;
41167;SDS011;26906;45.658;9.272;2023-08-07T16:24:51;0.38;;;0.32;;
41167;SDS011;26906;45.658;9.272;2023-08-07T16:27:17;0.80;;;0.40;;
41167;SDS011;26906;45.658;9.272;2023-08-07T16:29:44;0.30;;;0.30;;
41167;SDS011;26906;45.658;9.272;2023-08-07T16:32:09;1.50;;;0.52;;
41167;SDS011;26906;45.658;9.272;2023-08-07T16:34:41;0.85;;;0.50;;
41167;SDS011;26906;45.658;9.272;2023-08-07T16:37:10;3.40;;;0.60;;
41167;SDS011;26906;45.658;9.272;2023-08-07T16:39:36;0.90;;;0.65;;
41167;SDS011;26906;45.658;9.272;2023-08-07T16:42:01;0.88;;;0.50;;
41167;SDS011;26906;45.658;9.272;2023-08-07T16:44:27;1.02;;;0.38;;
41167;SDS011;26906;45.658;9.272;2023-08-07T16:46:53;1.92;;;0.70;;
41167;SDS011;26906;45.658;9.272;2023-08-07T16:49:19;1.35;;;0.70;;
41167;SDS011;26906;45.658;9.272;2023-08-07T16:51:46;0.77;;;0.50;;
41167;SDS011;26906;45.658;9.272;2023-08-07T16:54:12;0.40;;;0.30;;
41167;SDS011;26906;45.658;9.272;2023-08-07T16:56:38;1.60;;;0.68;;
41167;SDS011;26906;45.658;9.272;2023-08-07T16:59:03;3.03;;;0.50;;
41167;SDS011;26906;45.658;9.272;2023-08-07T17:01:29;1.38;;;0.70;;
41167;SDS011;26906;45.658;9.272;2023-08-07T17:03:55;0.40;;;0.30;;
41167;SDS011;26906;45.658;9.272;2023-08-07T17:06:20;1.58;;;0.50;;
41167;SDS011;26906;45.658;9.272;2023-08-07T17:08:47;0.75;;;0.47;;
41167;SDS011;26906;45.658;9.272;2023-08-07T17:11:15;0.98;;;0.47;;
41167;SDS011;26906;45.658;9.272;2023-08-07T17:13:40;1.02;;;0.50;;
41167;SDS011;26906;45.658;9.272;2023-08-07T17:16:06;3.90;;;0.60;;
41167;SDS011;26906;45.658;9.272;2023-08-07T17:18:32;1.80;;;0.50;;
41167;SDS011;26906;45.658;9.272;2023-08-07T17:20:58;1.10;;;0.40;;
41167;SDS011;26906;45.658;9.272;2023-08-07T17:23:24;1.98;;;0.50;;
41167;SDS011;26906;45.658;9.272;2023-08-07T17:25:49;1.20;;;0.80;;
41167;SDS011;26906;45.658;9.272;2023-08-07T17:28:15;1.50;;;0.60;;
41167;SDS011;26906;45.658;9.272;2023-08-07T17:30:41;0.50;;;0.50;;
41167;SDS011;26906;45.658;9.272;2023-08-07T17:33:08;0.70;;;0.60;;
41167;SDS011;26906;45.658;9.272;2023-08-07T17:35:34;1.17;;;0.60;;
41167;SDS011;26906;45.658;9.272;2023-08-07T17:38:00;0.40;;;0.30;;
41167;SDS011;26906;45.658;9.272;2023-08-07T17:40:25;0.63;;;0.60;;
41167;SDS011;26906;45.658;9.272;2023-08-07T17:42:51;0.50;;;0.50;;
41167;SDS011;26906;45.658;9.272;2023-08-07T17:45:17;2.08;;;0.60;;
41167;SDS011;26906;45.658;9.272;2023-08-07T17:47:43;0.50;;;0.50;;
41167;SDS011;26906;45.658;9.272;2023-08-07T17:50:08;0.60;;;0.50;;
41167;SDS011;26906;45.658;9.272;2023-08-07T17:52:35;0.70;;;0.50;;
41167;SDS011;26906;45.658;9.272;2023-08-07T17:55:02;1.95;;;0.40;;
41167;SDS011;26906;45.658;9.272;2023-08-07T17:57:29;4.18;;;0.70;;
41167;SDS011;26906;45.658;9.272;2023-08-07T17:59:55;0.85;;;0.40;;
41167;SDS011;26906;45.658;9.272;2023-08-07T18:02:20;0.70;;;0.40;;
41167;SDS011;26906;45.658;9.272;2023-08-07T18:04:46;0.60;;;0.50;;
41167;SDS011;26906;45.658;9.272;2023-08-07T18:07:12;1.55;;;0.68;;
41167;SDS011;26906;45.658;9.272;2023-08-07T18:09:39;0.40;;;0.40;;
41167;SDS011;26906;45.658;9.272;2023-08-07T18:12:05;0.60;;;0.30;;
41167;SDS011;26906;45.658;9.272;2023-08-07T18:14:32;0.63;;;0.40;;
41167;SDS011;26906;45.658;9.272;2023-08-07T18:16:59;0.65;;;0.43;;
41167;SDS011;26906;45.658;9.272;2023-08-07T18:19:25;1.00;;;0.57;;
41167;SDS011;26906;45.658;9.272;2023-08-07T18:21:51;1.08;;;0.45;;
41167;SDS011;26906;45.658;9.272;2023-08-07T18:24:16;0.40;;;0.40;;
41167;SDS011;26906;45.658;9.272;2023-08-07T18:26:43;0.68;;;0.40;;
41167;SDS011;26906;45.658;9.272;2023-08-07T18:29:09;2.60;;;0.57;;
41167;SDS011;26906;45.658;9.272;2023-08-07T18:31:35;0.68;;;0.50;;
41167;SDS011;26906;45.658;9.272;2023-08-07T18:34:01;0.63;;;0.38;;
41167;SDS011;26906;45.658;9.272;2023-08-07T18:36:27;0.60;;;0.43;;
41167;SDS011;26906;45.658;9.272;2023-08-07T18:38:53;2.38;;;0.80;;
41167;SDS011;26906;45.658;9.272;2023-08-07T18:41:19;3.63;;;0.50;;
41167;SDS011;26906;45.658;9.272;2023-08-07T18:43:45;0.80;;;0.50;;
41167;SDS011;26906;45.658;9.272;2023-08-07T18:46:10;1.33;;;0.68;;
41167;SDS011;26906;45.658;9.272;2023-08-07T18:48:37;0.80;;;0.50;;
41167;SDS011;26906;45.658;9.272;2023-08-07T18:51:03;1.30;;;0.60;;
41167;SDS011;26906;45.658;9.272;2023-08-07T18:53:29;0.77;;;0.65;;
41167;SDS011;26906;45.658;9.272;2023-08-07T18:55:55;1.67;;;0.40;;
41167;SDS011;26906;45.658;9.272;2023-08-07T18:58:21;0.93;;;0.55;;
41167;SDS011;26906;45.658;9.272;2023-08-07T19:00:47;1.77;;;0.73;;
41167;SDS011;26906;45.658;9.272;2023-08-07T19:03:12;0.50;;;0.40;;
41167;SDS011;26906;45.658;9.272;2023-08-07T19:05:38;1.00;;;0.45;;
41167;SDS011;26906;45.658;9.272;2023-08-07T19:08:04;1.52;;;0.50;;
41167;SDS011;26906;45.658;9.272;2023-08-07T19:10:30;1.20;;;0.50;;
41167;SDS011;26906;45.658;9.272;2023-08-07T19:12:56;1.33;;;0.55;;
41167;SDS011;26906;45.658;9.272;2023-08-07T19:15:21;1.25;;;0.60;;
41167;SDS011;26906;45.658;9.272;2023-08-07T19:17:47;1.10;;;0.70;;
41167;SDS011;26906;45.658;9.272;2023-08-07T19:20:13;1.00;;;0.68;;
41167;SDS011;26906;45.658;9.272;2023-08-07T19:22:39;0.73;;;0.50;;
41167;SDS011;26906;45.658;9.272;2023-08-07T19:25:05;1.60;;;0.60;;
41167;SDS011;26906;45.658;9.272;2023-08-07T19:27:31;1.20;;;0.50;;
41167;SDS011;26906;45.658;9.272;2023-08-07T19:29:57;1.65;;;0.55;;
41167;SDS011;26906;45.658;9.272;2023-08-07T19:32:24;1.60;;;0.80;;
41167;SDS011;26906;45.658;9.272;2023-08-07T19:34:50;1.35;;;0.90;;
41167;SDS011;26906;45.658;9.272;2023-08-07T19:37:16;1.77;;;0.85;;
41167;SDS011;26906;45.658;9.272;2023-08-07T19:39:43;1.25;;;0.73;;
41167;SDS011;26906;45.658;9.272;2023-08-07T19:42:12;2.13;;;0.50;;
41167;SDS011;26906;45.658;9.272;2023-08-07T19:44:38;1.42;;;0.50;;
41167;SDS011;26906;45.658;9.272;2023-08-07T19:47:04;3.22;;;0.40;;
41167;SDS011;26906;45.658;9.272;2023-08-07T19:49:29;0.63;;;0.50;;
41167;SDS011;26906;45.658;9.272;2023-08-07T19:51:56;0.50;;;0.40;;
41167;SDS011;26906;45.658;9.272;2023-08-07T19:54:23;0.35;;;0.30;;
41167;SDS011;26906;45.658;9.272;2023-08-07T19:56:49;0.65;;;0.40;;
41167;SDS011;26906;45.658;9.272;2023-08-07T19:59:15;0.50;;;0.30;;
41167;SDS011;26906;45.658;9.272;2023-08-07T20:01:40;1.10;;;0.50;;
41167;SDS011;26906;45.658;9.272;2023-08-07T20:04:08;0.50;;;0.30;;
41167;SDS011;26906;45.658;9.272;2023-08-07T20:06:36;0.73;;;0.40;;
41167;SDS011;26906;45.658;9.272;2023-08-07T20:09:01;1.33;;;0.30;;
41167;SDS011;26906;45.658;9.272;2023-08-07T20:11:33;0.77;;;0.40;;
41167;SDS011;26906;45.658;9.272;2023-08-07T20:14:02;0.80;;;0.40;;
41167;SDS011;26906;45.658;9.272;2023-08-07T20:16:28;0.35;;;0.35;;
41167;SDS011;26906;45.658;9.272;2023-08-07T20:18:56;0.30;;;0.30;;
41167;SDS011;26906;45.658;9.272;2023-08-07T20:21:25;0.32;;;0.30;;
41167;SDS011;26906;45.658;9.272;2023-08-07T20:23:51;1.75;;;0.50;;
41167;SDS011;26906;45.658;9.272;2023-08-07T20:26:17;0.50;;;0.43;;
41167;SDS011;26906;45.658;9.272;2023-08-07T20:28:42;0.40;;;0.32;;
41167;SDS011;26906;45.658;9.272;2023-08-07T20:31:08;0.70;;;0.50;;
41167;SDS011;26906;45.658;9.272;2023-08-07T20:33:34;1.08;;;0.30;;
41167;SDS011;26906;45.658;9.272;2023-08-07T20:36:02;0.60;;;0.50;;
41167;SDS011;26906;45.658;9.272;2023-08-07T20:38:29;2.05;;;0.50;;
41167;SDS011;26906;45.658;9.272;2023-08-07T20:40:55;0.55;;;0.47;;
41167;SDS011;26906;45.658;9.272;2023-08-07T20:43:20;0.50;;;0.30;;
41167;SDS011;26906;45.658;9.272;2023-08-07T20:45:46;0.60;;;0.50;;
41167;SDS011;26906;45.658;9.272;2023-08-07T20:48:12;0.60;;;0.50;;
41167;SDS011;26906;45.658;9.272;2023-08-07T20:50:37;0.65;;;0.38;;
41167;SDS011;26906;45.658;9.272;2023-08-07T20:53:03;0.60;;;0.50;;
41167;SDS011;26906;45.658;9.272;2023-08-07T20:55:29;0.30;;;0.30;;
41167;SDS011;26906;45.658;9.272;2023-08-07T20:57:54;0.40;;;0.20;;
41167;SDS011;26906;45.658;9.272;2023-08-07T21:00:20;0.70;;;0.40;;
41167;SDS011;26906;45.658;9.272;2023-08-07T21:02:46;1.40;;;0.43;;
41167;SDS011;26906;45.658;9.272;2023-08-07T21:05:11;0.32;;;0.32;;
41167;SDS011;26906;45.658;9.272;2023-08-07T21:07:37;1.10;;;0.40;;
41167;SDS011;26906;45.658;9.272;2023-08-07T21:10:03;0.60;;;0.40;;
41167;SDS011;26906;45.658;9.272;2023-08-07T21:12:30;0.65;;;0.43;;
41167;SDS011;26906;45.658;9.272;2023-08-07T21:14:56;0.40;;;0.40;;
41167;SDS011;26906;45.658;9.272;2023-08-07T21:17:21;2.45;;;0.38;;
41167;SDS011;26906;45.658;9.272;2023-08-07T21:19:47;0.70;;;0.40;;
41167;SDS011;26906;45.658;9.272;2023-08-07T21:22:13;0.63;;;0.30;;
41167;SDS011;26906;45.658;9.272;2023-08-07T21:24:39;0.45;;;0.45;;
41167;SDS011;26906;45.658;9.272;2023-08-07T21:27:04;0.93;;;0.20;;
41167;SDS011;26906;45.658;9.272;2023-08-07T21:29:30;0.40;;;0.40;;
